sensor_id;sensor_type;location;lat;lon;timestamp;pressure;altitude;pressure_sealevel;temperature;humidity
76297;BME280;65104;52.994;6.552;2022-12-22T00:01:36;100370.34;;;7.46;97.67
76297;BME280;65104;52.994;6.552;2022-12-22T00:04:21;100366.91;;;7.46;97.92
76297;BME280;65104;52.994;6.552;2022-12-22T00:07:06;100364.44;;;7.49;97.90
76297;BME280;65104;52.994;6.552;2022-12-22T00:09:50;100371.34;;;7.53;97.65
76297;BME280;65104;52.994;6.552;2022-12-22T00:12:34;100358.56;;;7.53;97.85
76297;BME280;65104;52.994;6.552;2022-12-22T00:15:19;100362.84;;;7.54;97.68
76297;BME280;65104;52.994;6.552;2022-12-22T00:18:13;100357.00;;;7.58;97.83
76297;BME280;65104;52.994;6.552;2022-12-22T00:20:59;100352.75;;;7.59;97.97
76297;BME280;65104;52.994;6.552;2022-12-22T00:23:43;100352.75;;;7.59;97.18
76297;BME280;65104;52.994;6.552;2022-12-22T00:26:28;100345.88;;;7.56;97.30
76297;BME280;65104;52.994;6.552;2022-12-22T00:29:14;100344.28;;;7.61;97.45
76297;BME280;65104;52.994;6.552;2022-12-22T00:32:00;100352.78;;;7.60;97.98
76297;BME280;65104;52.994;6.552;2022-12-22T00:34:45;100347.72;;;7.63;97.50
76297;BME280;65104;52.994;6.552;2022-12-22T00:37:36;100346.00;;;7.62;97.68
76297;BME280;65104;52.994;6.552;2022-12-22T00:40:25;100342.69;;;7.66;97.94
76297;BME280;65104;52.994;6.552;2022-12-22T00:43:10;100340.16;;;7.66;97.79
76297;BME280;65104;52.994;6.552;2022-12-22T00:45:55;100325.56;;;7.62;97.49
76297;BME280;65104;52.994;6.552;2022-12-22T00:48:42;100324.84;;;7.68;97.57
76297;BME280;65104;52.994;6.552;2022-12-22T00:51:28;100321.44;;;7.67;97.32
76297;BME280;65104;52.994;6.552;2022-12-22T00:54:14;100309.56;;;7.69;97.59
76297;BME280;65104;52.994;6.552;2022-12-22T00:57:00;100315.47;;;7.67;97.21
76297;BME280;65104;52.994;6.552;2022-12-22T00:59:47;100323.19;;;7.71;97.11
76297;BME280;65104;52.994;6.552;2022-12-22T01:02:32;100329.16;;;7.70;97.66
76297;BME280;65104;52.994;6.552;2022-12-22T01:05:17;100319.78;;;7.71;97.74
76297;BME280;65104;52.994;6.552;2022-12-22T01:08:01;100310.50;;;7.74;97.67
76297;BME280;65104;52.994;6.552;2022-12-22T01:10:46;100313.13;;;7.79;97.08
76297;BME280;65104;52.994;6.552;2022-12-22T01:13:31;100310.50;;;7.74;96.93
76297;BME280;65104;52.994;6.552;2022-12-22T01:16:15;100307.88;;;7.71;97.65
76297;BME280;65104;52.994;6.552;2022-12-22T01:19:00;100301.22;;;7.78;97.47
76297;BME280;65104;52.994;6.552;2022-12-22T01:21:45;100303.59;;;7.70;97.45
76297;BME280;65104;52.994;6.552;2022-12-22T01:24:30;100297.69;;;7.73;97.36
76297;BME280;65104;52.994;6.552;2022-12-22T01:27:14;100298.63;;;7.76;97.36
76297;BME280;65104;52.994;6.552;2022-12-22T01:29:59;100303.75;;;7.76;97.17
76297;BME280;65104;52.994;6.552;2022-12-22T01:32:44;100298.50;;;7.72;97.39
76297;BME280;65104;52.994;6.552;2022-12-22T01:35:34;100297.69;;;7.73;97.99
76297;BME280;65104;52.994;6.552;2022-12-22T01:38:19;100297.66;;;7.71;97.94
76297;BME280;65104;52.994;6.552;2022-12-22T01:41:11;100305.47;;;7.77;97.99
76297;BME280;65104;52.994;6.552;2022-12-22T01:43:57;100297.81;;;7.79;97.88
76297;BME280;65104;52.994;6.552;2022-12-22T01:46:45;100299.53;;;7.80;97.35
76297;BME280;65104;52.994;6.552;2022-12-22T01:49:37;100295.16;;;7.74;97.48
76297;BME280;65104;52.994;6.552;2022-12-22T01:52:28;100291.81;;;7.77;97.67
76297;BME280;65104;52.994;6.552;2022-12-22T01:55:18;100285.81;;;7.75;98.18
76297;BME280;65104;52.994;6.552;2022-12-22T01:58:05;100281.44;;;7.71;97.93
76297;BME280;65104;52.994;6.552;2022-12-22T02:00:53;100282.41;;;7.74;98.01
76297;BME280;65104;52.994;6.552;2022-12-22T02:03:38;100273.81;;;7.72;97.95
76297;BME280;65104;52.994;6.552;2022-12-22T02:06:36;100272.22;;;7.76;97.87
76297;BME280;65104;52.994;6.552;2022-12-22T02:09:43;100269.53;;;7.71;98.07
76297;BME280;65104;52.994;6.552;2022-12-22T02:12:55;100259.31;;;7.71;98.39
76297;BME280;65104;52.994;6.552;2022-12-22T02:15:49;100254.22;;;7.71;98.15
76297;BME280;65104;52.994;6.552;2022-12-22T02:19:06;100253.34;;;7.69;98.45
76297;BME280;65104;52.994;6.552;2022-12-22T02:25:09;100257.59;;;7.70;98.08
76297;BME280;65104;52.994;6.552;2022-12-22T02:27:59;100249.91;;;7.70;97.79
76297;BME280;65104;52.994;6.552;2022-12-22T02:30:45;100250.06;;;7.76;98.38
76297;BME280;65104;52.994;6.552;2022-12-22T02:33:30;100253.41;;;7.74;98.05
76297;BME280;65104;52.994;6.552;2022-12-22T02:45:15;100240.78;;;7.81;97.89
76297;BME280;65104;52.994;6.552;2022-12-22T02:48:16;100228.72;;;7.74;98.08
76297;BME280;65104;52.994;6.552;2022-12-22T02:51:21;100223.63;;;7.74;97.89
76297;BME280;65104;52.994;6.552;2022-12-22T02:54:07;100222.75;;;7.74;97.93
76297;BME280;65104;52.994;6.552;2022-12-22T02:56:52;100218.34;;;7.67;98.28
76297;BME280;65104;52.994;6.552;2022-12-22T02:59:37;100202.09;;;7.63;98.18
76297;BME280;65104;52.994;6.552;2022-12-22T03:02:22;100207.38;;;7.72;98.51
76297;BME280;65104;52.994;6.552;2022-12-22T03:05:06;100207.22;;;7.65;98.40
76297;BME280;65104;52.994;6.552;2022-12-22T03:07:51;100200.38;;;7.64;98.00
76297;BME280;65104;52.994;6.552;2022-12-22T03:10:35;100204.63;;;7.63;98.42
76297;BME280;65104;52.994;6.552;2022-12-22T03:13:19;100206.44;;;7.67;98.14
76297;BME280;65104;52.994;6.552;2022-12-22T03:16:04;100207.28;;;7.66;98.29
76297;BME280;65104;52.994;6.552;2022-12-22T03:18:50;100202.19;;;7.68;98.90
76297;BME280;65104;52.994;6.552;2022-12-22T03:21:34;100199.69;;;7.69;98.53
76297;BME280;65104;52.994;6.552;2022-12-22T03:24:19;100194.69;;;7.75;98.20
76297;BME280;65104;52.994;6.552;2022-12-22T03:27:03;100195.47;;;7.73;98.18
76297;BME280;65104;52.994;6.552;2022-12-22T03:29:28;100195.41;;;7.70;98.34
76297;BME280;65104;52.994;6.552;2022-12-22T03:31:54;100193.75;;;7.72;98.28
76297;BME280;65104;52.994;6.552;2022-12-22T03:34:20;100191.16;;;7.70;98.18
76297;BME280;65104;52.994;6.552;2022-12-22T03:36:46;100187.84;;;7.74;98.26
76297;BME280;65104;52.994;6.552;2022-12-22T03:39:12;100189.50;;;7.72;98.28
76297;BME280;65104;52.994;6.552;2022-12-22T03:41:38;100193.81;;;7.75;98.01
76297;BME280;65104;52.994;6.552;2022-12-22T03:44:24;100189.38;;;7.66;98.29
76297;BME280;65104;52.994;6.552;2022-12-22T03:47:08;100200.50;;;7.68;98.38
76297;BME280;65104;52.994;6.552;2022-12-22T03:49:34;100194.59;;;7.72;98.47
76297;BME280;65104;52.994;6.552;2022-12-22T03:51:59;100201.50;;;7.76;98.47
76297;BME280;65104;52.994;6.552;2022-12-22T03:54:26;100204.84;;;7.74;97.98
76297;BME280;65104;52.994;6.552;2022-12-22T03:56:52;100192.84;;;7.68;98.18
76297;BME280;65104;52.994;6.552;2022-12-22T03:59:18;100198.06;;;7.74;98.11
76297;BME280;65104;52.994;6.552;2022-12-22T04:01:48;100187.00;;;7.75;98.24
76297;BME280;65104;52.994;6.552;2022-12-22T04:04:15;100182.66;;;7.71;97.99
76297;BME280;65104;52.994;6.552;2022-12-22T04:06:42;100179.22;;;7.71;97.95
76297;BME280;65104;52.994;6.552;2022-12-22T04:09:08;100177.63;;;7.74;97.92
76297;BME280;65104;52.994;6.552;2022-12-22T04:11:34;100181.94;;;7.77;97.64
76297;BME280;65104;52.994;6.552;2022-12-22T04:14:18;100181.25;;;7.85;97.98
76297;BME280;65104;52.994;6.552;2022-12-22T04:16:45;100179.44;;;7.81;97.23
76297;BME280;65104;52.994;6.552;2022-12-22T04:19:11;100177.69;;;7.77;97.93
76297;BME280;65104;52.994;6.552;2022-12-22T04:21:38;100183.69;;;7.81;97.56
76297;BME280;65104;52.994;6.552;2022-12-22T04:24:04;100180.38;;;7.85;97.25
76297;BME280;65104;52.994;6.552;2022-12-22T04:26:30;100181.06;;;7.76;97.55
76297;BME280;65104;52.994;6.552;2022-12-22T04:28:57;100179.28;;;7.72;98.05
76297;BME280;65104;52.994;6.552;2022-12-22T04:31:23;100173.34;;;7.73;97.65
76297;BME280;65104;52.994;6.552;2022-12-22T04:33:50;100174.16;;;7.72;98.17
76297;BME280;65104;52.994;6.552;2022-12-22T04:36:17;100171.53;;;7.68;97.77
76297;BME280;65104;52.994;6.552;2022-12-22T04:38:43;100160.44;;;7.67;98.20
76297;BME280;65104;52.994;6.552;2022-12-22T04:41:09;100160.47;;;7.70;97.95
76297;BME280;65104;52.994;6.552;2022-12-22T04:43:35;100156.16;;;7.66;98.17
76297;BME280;65104;52.994;6.552;2022-12-22T04:46:01;100146.69;;;7.62;98.55
76297;BME280;65104;52.994;6.552;2022-12-22T04:48:28;100135.66;;;7.63;98.48
76297;BME280;65104;52.994;6.552;2022-12-22T04:50:55;100136.41;;;7.58;98.72
76297;BME280;65104;52.994;6.552;2022-12-22T04:53:23;100124.53;;;7.61;99.03
76297;BME280;65104;52.994;6.552;2022-12-22T04:56:00;100128.81;;;7.62;98.96
76297;BME280;65104;52.994;6.552;2022-12-22T04:58:26;100135.66;;;7.63;99.35
76297;BME280;65104;52.994;6.552;2022-12-22T05:00:53;100143.28;;;7.60;98.47
76297;BME280;65104;52.994;6.552;2022-12-22T05:03:19;100140.91;;;7.69;98.97
76297;BME280;65104;52.994;6.552;2022-12-22T05:05:45;100140.84;;;7.66;98.63
76297;BME280;65104;52.994;6.552;2022-12-22T05:08:11;100139.13;;;7.67;99.20
76297;BME280;65104;52.994;6.552;2022-12-22T05:10:37;100144.28;;;7.70;98.85
76297;BME280;65104;52.994;6.552;2022-12-22T05:13:03;100139.34;;;7.79;98.31
76297;BME280;65104;52.994;6.552;2022-12-22T05:15:31;100141.91;;;7.77;98.24
76297;BME280;65104;52.994;6.552;2022-12-22T05:17:58;100155.63;;;7.82;98.32
76297;BME280;65104;52.994;6.552;2022-12-22T05:20:26;100150.50;;;7.82;97.88
76297;BME280;65104;52.994;6.552;2022-12-22T05:22:52;100149.56;;;7.79;98.18
76297;BME280;65104;52.994;6.552;2022-12-22T05:25:18;100147.00;;;7.77;98.33
76297;BME280;65104;52.994;6.552;2022-12-22T05:27:47;100153.88;;;7.81;97.52
76297;BME280;65104;52.994;6.552;2022-12-22T05:30:15;100158.16;;;7.82;97.51
76297;BME280;65104;52.994;6.552;2022-12-22T05:32:42;100153.97;;;7.84;97.36
76297;BME280;65104;52.994;6.552;2022-12-22T05:35:08;100158.16;;;7.82;97.18
76297;BME280;65104;52.994;6.552;2022-12-22T05:37:34;100163.22;;;7.79;97.22
76297;BME280;65104;52.994;6.552;2022-12-22T05:40:00;100170.00;;;7.77;96.90
76297;BME280;65104;52.994;6.552;2022-12-22T05:42:27;100159.94;;;7.85;97.05
76297;BME280;65104;52.994;6.552;2022-12-22T05:45:21;100169.97;;;7.76;96.80
76297;BME280;65104;52.994;6.552;2022-12-22T05:47:50;100184.38;;;7.72;96.98
76297;BME280;65104;52.994;6.552;2022-12-22T05:50:19;100185.25;;;7.73;97.13
76297;BME280;65104;52.994;6.552;2022-12-22T05:52:45;100171.63;;;7.74;96.42
76297;BME280;65104;52.994;6.552;2022-12-22T05:55:12;100180.06;;;7.70;96.32
76297;BME280;65104;52.994;6.552;2022-12-22T05:57:39;100178.38;;;7.70;96.00
76297;BME280;65104;52.994;6.552;2022-12-22T06:00:07;100180.84;;;7.66;96.09
76297;BME280;65104;52.994;6.552;2022-12-22T06:02:34;100172.25;;;7.62;95.43
76297;BME280;65104;52.994;6.552;2022-12-22T06:05:00;100164.56;;;7.61;95.39
76297;BME280;65104;52.994;6.552;2022-12-22T06:07:26;100164.59;;;7.62;94.54
76297;BME280;65104;52.994;6.552;2022-12-22T06:09:51;100160.31;;;7.60;94.82
76297;BME280;65104;52.994;6.552;2022-12-22T06:12:18;100172.88;;;7.50;94.99
76297;BME280;65104;52.994;6.552;2022-12-22T06:14:44;100168.56;;;7.48;95.39
76297;BME280;65104;52.994;6.552;2022-12-22T06:17:10;100183.06;;;7.49;95.96
76297;BME280;65104;52.994;6.552;2022-12-22T06:19:36;100176.91;;;7.39;95.95
76297;BME280;65104;52.994;6.552;2022-12-22T06:22:01;100179.53;;;7.42;95.76
76297;BME280;65104;52.994;6.552;2022-12-22T06:24:28;100175.94;;;7.34;95.93
76297;BME280;65104;52.994;6.552;2022-12-22T06:26:54;100195.56;;;7.37;95.91
76297;BME280;65104;52.994;6.552;2022-12-22T06:29:20;100194.47;;;7.26;96.16
76297;BME280;65104;52.994;6.552;2022-12-22T06:31:46;100188.63;;;7.30;95.96
76297;BME280;65104;52.994;6.552;2022-12-22T06:34:12;100187.16;;;7.41;95.91
76297;BME280;65104;52.994;6.552;2022-12-22T06:36:38;100190.34;;;7.31;96.45
76297;BME280;65104;52.994;6.552;2022-12-22T06:39:06;100194.47;;;7.26;96.20
76297;BME280;65104;52.994;6.552;2022-12-22T06:41:32;100196.91;;;7.20;95.94
76297;BME280;65104;52.994;6.552;2022-12-22T06:44:16;100199.13;;;7.04;96.76
76297;BME280;65104;52.994;6.552;2022-12-22T06:46:42;100198.16;;;6.99;96.36
76297;BME280;65104;52.994;6.552;2022-12-22T06:49:08;100195.22;;;6.83;96.74
76297;BME280;65104;52.994;6.552;2022-12-22T06:51:34;100205.06;;;6.67;96.76
76297;BME280;65104;52.994;6.552;2022-12-22T06:54:00;100199.66;;;6.55;96.74
76297;BME280;65104;52.994;6.552;2022-12-22T06:56:25;100209.91;;;6.57;97.48
76297;BME280;65104;52.994;6.552;2022-12-22T06:58:51;100211.25;;;6.43;96.97
76297;BME280;65104;52.994;6.552;2022-12-22T07:01:17;100217.88;;;6.36;97.75
76297;BME280;65104;52.994;6.552;2022-12-22T07:03:43;100213.41;;;6.27;97.89
76297;BME280;65104;52.994;6.552;2022-12-22T07:06:09;100211.66;;;6.26;98.00
76297;BME280;65104;52.994;6.552;2022-12-22T07:08:35;100222.50;;;6.18;98.19
76297;BME280;65104;52.994;6.552;2022-12-22T07:11:01;100221.47;;;6.11;98.34
76297;BME280;65104;52.994;6.552;2022-12-22T07:13:31;100225.66;;;6.08;98.58
76297;BME280;65104;52.994;6.552;2022-12-22T07:15:59;100239.59;;;6.22;97.96
76297;BME280;65104;52.994;6.552;2022-12-22T07:18:25;100236.00;;;6.47;97.85
76297;BME280;65104;52.994;6.552;2022-12-22T07:20:51;100236.41;;;6.62;97.50
76297;BME280;65104;52.994;6.552;2022-12-22T07:23:17;100237.41;;;6.68;97.04
76297;BME280;65104;52.994;6.552;2022-12-22T07:25:43;100240.75;;;6.66;97.01
76297;BME280;65104;52.994;6.552;2022-12-22T07:28:09;100246.03;;;6.73;96.99
76297;BME280;65104;52.994;6.552;2022-12-22T07:30:34;100259.59;;;6.71;97.53
76297;BME280;65104;52.994;6.552;2022-12-22T07:33:03;100256.03;;;6.66;97.13
76297;BME280;65104;52.994;6.552;2022-12-22T07:35:29;100253.63;;;6.70;96.85
76297;BME280;65104;52.994;6.552;2022-12-22T07:37:55;100261.91;;;6.62;97.15
76297;BME280;65104;52.994;6.552;2022-12-22T07:40:21;100267.03;;;6.63;96.91
76297;BME280;65104;52.994;6.552;2022-12-22T07:42:47;100264.66;;;6.69;97.26
76297;BME280;65104;52.994;6.552;2022-12-22T07:45:18;100267.06;;;6.65;96.40
76297;BME280;65104;52.994;6.552;2022-12-22T07:47:44;100271.34;;;6.66;97.01
76297;BME280;65104;52.994;6.552;2022-12-22T07:50:16;100267.00;;;6.62;97.37
76297;BME280;65104;52.994;6.552;2022-12-22T07:53:02;100267.00;;;6.62;96.84
76297;BME280;65104;52.994;6.552;2022-12-22T07:55:30;100275.53;;;6.64;96.87
76297;BME280;65104;52.994;6.552;2022-12-22T07:57:57;100279.69;;;6.59;97.46
76297;BME280;65104;52.994;6.552;2022-12-22T08:00:23;100277.09;;;6.57;96.38
76297;BME280;65104;52.994;6.552;2022-12-22T08:02:50;100284.88;;;6.62;96.39
76297;BME280;65104;52.994;6.552;2022-12-22T08:05:16;100281.47;;;6.61;96.86
76297;BME280;65104;52.994;6.552;2022-12-22T08:07:42;100284.03;;;6.63;96.48
76297;BME280;65104;52.994;6.552;2022-12-22T08:10:09;100287.34;;;6.59;96.16
76297;BME280;65104;52.994;6.552;2022-12-22T08:12:36;100288.25;;;6.61;96.13
76297;BME280;65104;52.994;6.552;2022-12-22T08:15:01;100289.84;;;6.57;96.55
76297;BME280;65104;52.994;6.552;2022-12-22T08:17:28;100291.47;;;6.55;97.14
76297;BME280;65104;52.994;6.552;2022-12-22T08:19:54;100289.56;;;6.47;96.14
76297;BME280;65104;52.994;6.552;2022-12-22T08:22:21;100300.53;;;6.43;96.66
76297;BME280;65104;52.994;6.552;2022-12-22T08:24:54;100294.47;;;6.39;97.13
76297;BME280;65104;52.994;6.552;2022-12-22T08:27:47;100287.81;;;6.46;96.32
76297;BME280;65104;52.994;6.552;2022-12-22T08:30:15;100295.41;;;6.43;95.54
76297;BME280;65104;52.994;6.552;2022-12-22T08:32:41;100301.00;;;6.29;95.55
76297;BME280;65104;52.994;6.552;2022-12-22T08:35:08;100300.03;;;6.24;95.76
76297;BME280;65104;52.994;6.552;2022-12-22T08:37:38;100307.00;;;6.31;95.93
76297;BME280;65104;52.994;6.552;2022-12-22T08:40:14;100308.75;;;6.32;96.13
76297;BME280;65104;52.994;6.552;2022-12-22T08:42:40;100312.97;;;6.32;96.26
76297;BME280;65104;52.994;6.552;2022-12-22T08:45:08;100307.66;;;6.24;96.36
76297;BME280;65104;52.994;6.552;2022-12-22T08:47:37;100315.47;;;6.30;96.06
76297;BME280;65104;52.994;6.552;2022-12-22T08:50:03;100317.72;;;6.20;95.81
76297;BME280;65104;52.994;6.552;2022-12-22T08:52:29;100321.69;;;6.10;95.63
76297;BME280;65104;52.994;6.552;2022-12-22T08:54:55;100317.03;;;5.95;96.26
76297;BME280;65104;52.994;6.552;2022-12-22T08:57:21;100324.53;;;5.91;95.46
76297;BME280;65104;52.994;6.552;2022-12-22T08:59:47;100325.94;;;5.81;96.80
76297;BME280;65104;52.994;6.552;2022-12-22T09:02:13;100332.53;;;5.75;96.04
76297;BME280;65104;52.994;6.552;2022-12-22T09:04:38;100336.09;;;5.80;96.58
76297;BME280;65104;52.994;6.552;2022-12-22T09:07:04;100332.56;;;5.76;96.74
76297;BME280;65104;52.994;6.552;2022-12-22T09:09:31;100329.22;;;5.77;97.40
76297;BME280;65104;52.994;6.552;2022-12-22T09:11:58;100331.06;;;5.83;96.77
76297;BME280;65104;52.994;6.552;2022-12-22T09:14:24;100326.13;;;5.87;96.58
76297;BME280;65104;52.994;6.552;2022-12-22T09:16:53;100327.06;;;5.89;96.84
76297;BME280;65104;52.994;6.552;2022-12-22T09:19:19;100339.81;;;5.91;97.03
76297;BME280;65104;52.994;6.552;2022-12-22T09:21:44;100337.44;;;5.95;96.65
76297;BME280;65104;52.994;6.552;2022-12-22T09:24:10;100346.75;;;5.95;97.02
76297;BME280;65104;52.994;6.552;2022-12-22T09:26:37;100347.56;;;5.94;96.70
76297;BME280;65104;52.994;6.552;2022-12-22T09:29:03;100352.72;;;5.95;96.39
76297;BME280;65104;52.994;6.552;2022-12-22T09:31:29;100352.50;;;5.88;96.01
76297;BME280;65104;52.994;6.552;2022-12-22T09:33:55;100344.50;;;5.77;96.08
76297;BME280;65104;52.994;6.552;2022-12-22T09:36:27;100350.34;;;5.75;97.02
76297;BME280;65104;52.994;6.552;2022-12-22T09:38:56;100354.75;;;5.79;96.42
76297;BME280;65104;52.994;6.552;2022-12-22T09:41:55;100354.69;;;5.77;97.09
76297;BME280;65104;52.994;6.552;2022-12-22T09:44:32;100363.38;;;5.84;97.20
76297;BME280;65104;52.994;6.552;2022-12-22T09:47:13;100363.31;;;5.81;96.85
76297;BME280;65104;52.994;6.552;2022-12-22T09:49:41;100373.50;;;5.81;96.91
76297;BME280;65104;52.994;6.552;2022-12-22T09:52:22;100373.22;;;5.72;95.99
76297;BME280;65104;52.994;6.552;2022-12-22T09:54:48;100378.38;;;5.75;96.97
76297;BME280;65104;52.994;6.552;2022-12-22T09:57:16;100369.00;;;5.74;97.12
76297;BME280;65104;52.994;6.552;2022-12-22T09:59:41;100369.63;;;5.66;96.26
76297;BME280;65104;52.994;6.552;2022-12-22T10:02:27;100372.00;;;5.60;95.94
76297;BME280;65104;52.994;6.552;2022-12-22T10:08:14;100374.69;;;5.65;97.21
76297;BME280;65104;52.994;6.552;2022-12-22T10:10:42;100377.47;;;5.73;97.42
76297;BME280;65104;52.994;6.552;2022-12-22T10:13:16;100380.28;;;5.82;96.66
76297;BME280;65104;52.994;6.552;2022-12-22T10:15:43;100372.94;;;5.89;96.91
76297;BME280;65104;52.994;6.552;2022-12-22T10:18:21;100371.25;;;5.90;96.83
76297;BME280;65104;52.994;6.552;2022-12-22T10:21:10;100382.53;;;5.98;96.69
76297;BME280;65104;52.994;6.552;2022-12-22T10:23:39;100378.31;;;6.00;95.74
76297;BME280;65104;52.994;6.552;2022-12-22T10:26:10;100373.66;;;6.14;96.17
76297;BME280;65104;52.994;6.552;2022-12-22T10:29:08;100382.25;;;6.17;95.51
76297;BME280;65104;52.994;6.552;2022-12-22T10:31:36;100375.44;;;6.16;94.98
76297;BME280;65104;52.994;6.552;2022-12-22T10:34:13;100390.28;;;6.31;95.08
76297;BME280;65104;52.994;6.552;2022-12-22T10:36:41;100391.16;;;6.31;94.70
76297;BME280;65104;52.994;6.552;2022-12-22T10:39:19;100390.50;;;6.38;94.40
76297;BME280;65104;52.994;6.552;2022-12-22T10:41:48;100391.50;;;6.44;95.09
76297;BME280;65104;52.994;6.552;2022-12-22T10:46:46;100399.72;;;6.65;94.09
76297;BME280;65104;52.994;6.552;2022-12-22T10:49:33;100394.88;;;6.74;94.06
76297;BME280;65104;52.994;6.552;2022-12-22T10:52:26;100397.56;;;6.78;93.06
76297;BME280;65104;52.994;6.552;2022-12-22T10:55:14;100382.94;;;6.73;93.98
76297;BME280;65104;52.994;6.552;2022-12-22T10:57:40;100384.91;;;6.83;93.14
76297;BME280;65104;52.994;6.552;2022-12-22T11:00:30;100387.03;;;6.99;93.28
76297;BME280;65104;52.994;6.552;2022-12-22T11:02:58;100380.44;;;7.06;92.27
76297;BME280;65104;52.994;6.552;2022-12-22T11:05:24;100385.72;;;7.13;92.07
76297;BME280;65104;52.994;6.552;2022-12-22T11:07:51;100379.25;;;7.28;92.38
76297;BME280;65104;52.994;6.552;2022-12-22T11:10:35;100384.72;;;7.41;91.57
76297;BME280;65104;52.994;6.552;2022-12-22T11:13:39;100400.22;;;7.49;91.20
76297;BME280;65104;52.994;6.552;2022-12-22T11:28:30;100411.44;;;8.73;85.26
76297;BME280;65104;52.994;6.552;2022-12-22T11:37:06;100400.53;;;9.29;82.75
76297;BME280;65104;52.994;6.552;2022-12-22T11:39:55;100401.53;;;8.89;85.33
76297;BME280;65104;52.994;6.552;2022-12-22T11:54:34;100395.19;;;9.17;82.87
76297;BME280;65104;52.994;6.552;2022-12-22T11:57:31;100402.78;;;9.13;82.81
76297;BME280;65104;52.994;6.552;2022-12-22T12:00:15;100411.97;;;9.00;82.37
76297;BME280;65104;52.994;6.552;2022-12-22T12:06:14;100401.97;;;9.15;82.31
76297;BME280;65104;52.994;6.552;2022-12-22T12:11:32;100392.72;;;9.23;81.75
76297;BME280;65104;52.994;6.552;2022-12-22T12:14:36;100400.13;;;9.58;79.28
76297;BME280;65104;52.994;6.552;2022-12-22T12:25:53;100416.38;;;9.57;80.42
76297;BME280;65104;52.994;6.552;2022-12-22T12:31:07;100409.66;;;9.66;80.47
76297;BME280;65104;52.994;6.552;2022-12-22T12:33:57;100407.16;;;9.71;81.18
76297;BME280;65104;52.994;6.552;2022-12-22T12:36:45;100410.66;;;9.74;80.46
76297;BME280;65104;52.994;6.552;2022-12-22T12:39:37;100405.25;;;9.56;80.69
76297;BME280;65104;52.994;6.552;2022-12-22T12:44:57;100403.22;;;9.91;80.38
76297;BME280;65104;52.994;6.552;2022-12-22T12:47:27;100410.81;;;9.87;81.21
76297;BME280;65104;52.994;6.552;2022-12-22T12:50:32;100398.28;;;9.48;81.16
76297;BME280;65104;52.994;6.552;2022-12-22T12:53:09;100406.09;;;9.07;83.05
76297;BME280;65104;52.994;6.552;2022-12-22T13:01:03;100405.13;;;8.55;86.21
76297;BME280;65104;52.994;6.552;2022-12-22T13:05:58;100398.75;;;8.79;85.32
76297;BME280;65104;52.994;6.552;2022-12-22T13:11:34;100403.56;;;8.62;87.44
76297;BME280;65104;52.994;6.552;2022-12-22T13:14:01;100402.69;;;8.61;86.65
76297;BME280;65104;52.994;6.552;2022-12-22T13:16:30;100411.25;;;8.62;86.76
76297;BME280;65104;52.994;6.552;2022-12-22T13:18:58;100406.88;;;8.56;86.88
76297;BME280;65104;52.994;6.552;2022-12-22T13:21:28;100414.22;;;8.40;86.49
76297;BME280;65104;52.994;6.552;2022-12-22T13:26:22;100410.22;;;8.54;86.17
76297;BME280;65104;52.994;6.552;2022-12-22T13:28:54;100409.44;;;8.56;85.47
76297;BME280;65104;52.994;6.552;2022-12-22T13:34:36;100418.00;;;8.58;86.35
76297;BME280;65104;52.994;6.552;2022-12-22T13:37:21;100419.72;;;8.59;84.88
76297;BME280;65104;52.994;6.552;2022-12-22T13:40:19;100418.19;;;8.68;85.17
76297;BME280;65104;52.994;6.552;2022-12-22T13:42:59;100416.69;;;8.79;84.68
76297;BME280;65104;52.994;6.552;2022-12-22T13:45:35;100430.44;;;8.84;85.58
76297;BME280;65104;52.994;6.552;2022-12-22T13:50:53;100424.63;;;8.92;84.83
76297;BME280;65104;52.994;6.552;2022-12-22T13:53:33;100430.56;;;8.90;84.42
76297;BME280;65104;52.994;6.552;2022-12-22T13:56:32;100418.75;;;8.98;84.15
76297;BME280;65104;52.994;6.552;2022-12-22T13:58:59;100425.63;;;9.00;83.59
76297;BME280;65104;52.994;6.552;2022-12-22T14:01:27;100427.25;;;8.97;83.88
76297;BME280;65104;52.994;6.552;2022-12-22T14:03:57;100431.41;;;8.90;84.50
76297;BME280;65104;52.994;6.552;2022-12-22T14:06:31;100422.91;;;8.91;84.57
76297;BME280;65104;52.994;6.552;2022-12-22T14:09:18;100444.88;;;8.80;84.21
76297;BME280;65104;52.994;6.552;2022-12-22T14:14:28;100435.25;;;8.69;84.80
76297;BME280;65104;52.994;6.552;2022-12-22T14:16:58;100435.25;;;8.69;84.94
76297;BME280;65104;52.994;6.552;2022-12-22T14:19:25;100437.72;;;8.64;84.54
76297;BME280;65104;52.994;6.552;2022-12-22T14:22:13;100428.94;;;8.50;85.39
76297;BME280;65104;52.994;6.552;2022-12-22T14:24:53;100436.56;;;8.48;85.10
76297;BME280;65104;52.994;6.552;2022-12-22T14:27:43;100439.16;;;8.50;85.98
76297;BME280;65104;52.994;6.552;2022-12-22T14:30:20;100442.50;;;8.47;85.15
76297;BME280;65104;52.994;6.552;2022-12-22T14:32:51;100439.16;;;8.50;85.08
76297;BME280;65104;52.994;6.552;2022-12-22T14:37:48;100440.84;;;8.49;85.47
76297;BME280;65104;52.994;6.552;2022-12-22T14:43:02;100417.25;;;8.25;86.59
76297;BME280;65104;52.994;6.552;2022-12-22T14:45:30;100428.28;;;8.21;86.42
76297;BME280;65104;52.994;6.552;2022-12-22T14:47:56;100423.81;;;8.12;86.82
76297;BME280;65104;52.994;6.552;2022-12-22T14:50:24;100420.31;;;8.09;87.45
76297;BME280;65104;52.994;6.552;2022-12-22T14:52:53;100421.22;;;8.11;87.33
76297;BME280;65104;52.994;6.552;2022-12-22T14:55:39;100417.69;;;8.06;87.60
76297;BME280;65104;52.994;6.552;2022-12-22T14:58:34;100418.56;;;8.05;87.63
76297;BME280;65104;52.994;6.552;2022-12-22T15:01:22;100424.38;;;7.99;87.50
76297;BME280;65104;52.994;6.552;2022-12-22T15:04:00;100425.22;;;8.00;87.70
76297;BME280;65104;52.994;6.552;2022-12-22T15:06:39;100411.63;;;8.01;87.52
76297;BME280;65104;52.994;6.552;2022-12-22T15:14:15;100424.81;;;7.81;87.91
76297;BME280;65104;52.994;6.552;2022-12-22T15:16:43;100428.25;;;7.82;88.15
76297;BME280;65104;52.994;6.552;2022-12-22T15:19:17;100419.66;;;7.78;88.22
76297;BME280;65104;52.994;6.552;2022-12-22T15:21:49;100421.22;;;7.73;88.27